Thunder radar more information blitzortung!


Radar de pluja more information rain snow radar


Visita la nostra xarxa de llocs de meteo:

Template documentation
and downloads

And another site



No particular awareness of the weather is required.    There are no Weather-warnings

Pagina Historial Weather Underground text

Diari Resum Abril 5, 2016 Unitats:  Mètric    Imperial   Tant
« Previous Dia
SegĂźent Dia »
Diari Setmana Mensual Anual Personalitzada
  Maxima: Minima: Media:
Temperatura: 13.9 °C 10.6 °C 12.6 °C
Punt de rosada: 12.4 °C 8.9 °C 10.8 °C
Humitat: 93 % 85 % 89 %
Wind Speed: 20.4 km/h 0.0 km/h 7 km/h
RĂ fegues de vent: 20.9 km/h - -
Vent:- - SE
Pression baro: 1012.8 hPa 1001.9 hPa -
Precipitacions: 34.0 mm    
Historical Graphs
 
 
Dades de taula per Abril 5, 2016
Temps Temperatura Punt de rosada Pression baro Vent Wind Speed RĂ fegues de vent Humitat Rainfall Rate (Hourly)
00:02 11.8 °C 9.3 °C 1003.9 hPa ENE 3.7 km/h 3.9 km/h 85 % 0.0 mm
00:07 11.8 °C 9.3 °C 1003.9 hPa ENE 3.7 km/h 3.9 km/h 85 % 0.0 mm
00:55 12.7 °C 11.6 °C 1001.9 hPa ENE 8.0 km/h 8.0 km/h 93 % 0.0 mm
01:05 12.7 °C 11.6 °C 1001.9 hPa East 12.9 km/h 12.9 km/h 93 % 0.0 mm
01:15 12.7 °C 11.6 °C 1001.9 hPa East 12.9 km/h 17.7 km/h 93 % 0.0 mm
01:25 12.8 °C 11.7 °C 1001.9 hPa East 9.7 km/h 20.9 km/h 93 % 0.0 mm
01:45 12.8 °C 11.7 °C 1001.9 hPa East 11.3 km/h 14.5 km/h 93 % 0.0 mm
01:55 12.8 °C 11.7 °C 1001.9 hPa East 9.7 km/h 14.5 km/h 93 % 0.0 mm
02:05 12.9 °C 11.8 °C 1001.9 hPa East 9.7 km/h 11.3 km/h 93 % 0.0 mm
02:15 12.9 °C 11.6 °C 1001.9 hPa ESE 8.0 km/h 8.0 km/h 92 % 0.0 mm
02:25 12.9 °C 11.6 °C 1001.9 hPa ESE 4.8 km/h 9.7 km/h 92 % 0.0 mm
02:35 12.9 °C 11.8 °C 1001.9 hPa ESE 4.8 km/h 16.1 km/h 93 % 0.0 mm
02:45 12.9 °C 11.8 °C 1002.9 hPa ESE 14.5 km/h 14.5 km/h 93 % 0.0 mm
02:55 13.0 °C 11.9 °C 1002.9 hPa ESE 9.7 km/h 12.9 km/h 93 % 0.0 mm
03:05 13.0 °C 11.9 °C 1002.9 hPa SE 12.9 km/h 19.3 km/h 93 % 0.0 mm
03:15 13.0 °C 11.7 °C 1002.9 hPa SE 12.9 km/h 16.1 km/h 92 % 0.0 mm
03:35 13.0 °C 11.7 °C 1003.9 hPa ESE 8.0 km/h 14.5 km/h 92 % 0.0 mm
03:45 12.9 °C 11.6 °C 1003.9 hPa ESE 8.0 km/h 9.7 km/h 92 % 0.0 mm
03:55 12.9 °C 11.6 °C 1003.9 hPa East 9.7 km/h 9.7 km/h 92 % 0.0 mm
04:05 12.8 °C 11.6 °C 1003.9 hPa ESE 11.3 km/h 14.5 km/h 92 % 0.0 mm
04:15 12.8 °C 11.6 °C 1002.9 hPa ESE 9.7 km/h 12.9 km/h 92 % 0.0 mm
04:25 12.8 °C 11.7 °C 1003.9 hPa ESE 8.0 km/h 12.9 km/h 93 % 0.0 mm
04:35 12.8 °C 11.7 °C 1003.9 hPa ESE 11.3 km/h 19.3 km/h 93 % 0.0 mm
04:45 12.8 °C 11.7 °C 1003.9 hPa ESE 8.0 km/h 17.7 km/h 93 % 0.0 mm
04:55 12.9 °C 11.8 °C 1005.0 hPa ESE 12.9 km/h 20.9 km/h 93 % 0.0 mm
05:05 12.8 °C 11.6 °C 1005.0 hPa SE 11.3 km/h 12.9 km/h 92 % 0.0 mm
05:15 12.9 °C 11.8 °C 1005.0 hPa East 8.0 km/h 8.0 km/h 93 % 0.0 mm
10:16 12.9 °C 11.8 °C 1005.0 hPa ENE 3.7 km/h 7.9 km/h 93 % 0.0 mm
10:21 12.9 °C 11.8 °C 1006.0 hPa ESE 13.0 km/h 13.0 km/h 93 % 0.0 mm
10:26 12.9 °C 11.8 °C 1006.0 hPa ENE 20.4 km/h 20.4 km/h 93 % 0.0 mm
10:31 13.0 °C 11.9 °C 1006.0 hPa ESE 13.0 km/h 13.0 km/h 93 % 0.0 mm
10:36 13.0 °C 11.9 °C 1006.0 hPa ESE 13.0 km/h 13.0 km/h 93 % 0.0 mm
10:46 13.0 °C 11.9 °C 1006.0 hPa ENE 9.3 km/h 9.3 km/h 93 % 0.0 mm
10:51 13.0 °C 11.9 °C 1006.0 hPa ENE 14.8 km/h 14.8 km/h 93 % 0.0 mm
10:56 13.0 °C 11.9 °C 1006.0 hPa ESE 9.3 km/h 9.3 km/h 93 % 0.0 mm
11:01 13.0 °C 11.9 °C 1006.0 hPa ESE 14.8 km/h 14.8 km/h 93 % 0.0 mm
11:06 13.1 °C 11.8 °C 1006.0 hPa ESE 13.0 km/h 13.0 km/h 92 % 0.0 mm
11:11 13.2 °C 11.9 °C 1006.0 hPa ESE 11.1 km/h 11.1 km/h 92 % 0.0 mm
11:16 13.2 °C 11.9 °C 1006.0 hPa ENE 14.8 km/h 14.8 km/h 92 % 0.0 mm
11:21 13.2 °C 11.9 °C 1006.0 hPa ENE 12.6 km/h 12.6 km/h 92 % 0.0 mm
11:26 13.2 °C 11.9 °C 1006.0 hPa ENE 9.3 km/h 9.3 km/h 92 % 0.0 mm
11:31 13.3 °C 12.0 °C 1006.0 hPa East 14.8 km/h 14.8 km/h 92 % 0.0 mm
11:36 13.4 °C 12.1 °C 1006.0 hPa ESE 11.1 km/h 11.1 km/h 92 % 0.0 mm
11:41 13.5 °C 12.2 °C 1006.0 hPa East 6.4 km/h 7.6 km/h 92 % 0.0 mm
11:51 13.5 °C 12.1 °C 1006.0 hPa NNE 9.3 km/h 9.3 km/h 91 % 0.0 mm
11:56 13.5 °C 12.1 °C 1006.0 hPa ENE 7.4 km/h 7.4 km/h 91 % 0.0 mm
12:01 13.5 °C 12.1 °C 1006.0 hPa East 6.4 km/h 6.4 km/h 91 % 0.0 mm
12:06 13.5 °C 12.1 °C 1006.0 hPa ESE 9.5 km/h 9.5 km/h 91 % 0.0 mm
12:11 13.5 °C 12.1 °C 1006.0 hPa ENE 9.3 km/h 9.3 km/h 91 % 0.0 mm
12:16 13.6 °C 12.3 °C 1006.0 hPa ENE 9.3 km/h 9.3 km/h 92 % 0.0 mm
12:22 13.6 °C 12.3 °C 1006.0 hPa ENE 13.0 km/h 13.0 km/h 92 % 0.0 mm
12:27 13.7 °C 12.4 °C 1006.0 hPa NNE 13.0 km/h 13.0 km/h 92 % 0.0 mm
12:32 13.7 °C 12.4 °C 1006.0 hPa ESE 16.4 km/h 16.4 km/h 92 % 0.0 mm
12:37 13.7 °C 12.4 °C 1006.0 hPa NNE 9.3 km/h 9.3 km/h 92 % 0.0 mm
12:42 13.7 °C 12.3 °C 1006.0 hPa ESE 20.4 km/h 20.4 km/h 91 % 0.0 mm
12:47 13.8 °C 12.3 °C 1006.0 hPa ESE 13.0 km/h 13.0 km/h 91 % 0.0 mm
12:52 13.8 °C 12.2 °C 1007.0 hPa ESE 14.8 km/h 14.8 km/h 90 % 0.0 mm
12:57 13.7 °C 12.1 °C 1007.0 hPa ENE 16.7 km/h 16.7 km/h 90 % 0.0 mm
13:02 13.8 °C 12.2 °C 1007.0 hPa ESE 13.0 km/h 13.0 km/h 90 % 0.0 mm
13:07 13.9 °C 12.3 °C 1007.0 hPa ENE 13.0 km/h 13.0 km/h 90 % 0.0 mm
13:12 13.8 °C 12.2 °C 1007.0 hPa ENE 13.0 km/h 13.0 km/h 90 % 0.0 mm
13:17 13.7 °C 12.1 °C 1007.0 hPa NE 7.4 km/h 7.4 km/h 90 % 0.0 mm
13:27 13.5 °C 12.1 °C 1007.0 hPa NE 13.7 km/h 13.7 km/h 91 % 0.0 mm
13:32 13.3 °C 11.9 °C 1007.0 hPa ENE 16.7 km/h 16.7 km/h 91 % 0.0 mm
13:37 13.0 °C 11.4 °C 1008.0 hPa NE 19.8 km/h 19.8 km/h 90 % 0.0 mm
13:42 12.6 °C 10.8 °C 1008.0 hPa NE 13.0 km/h 13.0 km/h 89 % 0.0 mm
13:47 12.5 °C 10.7 °C 1008.0 hPa NE 20.4 km/h 20.4 km/h 89 % 0.0 mm
13:52 12.4 °C 10.6 °C 1008.0 hPa NE 13.0 km/h 13.0 km/h 89 % 0.0 mm
13:57 12.4 °C 10.6 °C 1008.0 hPa East 14.8 km/h 14.8 km/h 89 % 0.0 mm
14:02 12.3 °C 10.6 °C 1008.0 hPa ENE 13.0 km/h 13.0 km/h 89 % 0.0 mm
14:07 12.2 °C 10.4 °C 1008.0 hPa ENE 13.0 km/h 13.0 km/h 89 % 0.0 mm
14:12 12.2 °C 10.4 °C 1008.0 hPa ESE 14.8 km/h 14.8 km/h 89 % 0.0 mm
14:17 12.1 °C 10.3 °C 1008.0 hPa NE 17.2 km/h 17.2 km/h 89 % 0.0 mm
14:22 12.1 °C 10.3 °C 1008.0 hPa NE 13.7 km/h 13.7 km/h 89 % 0.0 mm
14:32 12.1 °C 10.5 °C 1008.0 hPa ENE 12.6 km/h 12.6 km/h 90 % 0.0 mm
14:37 12.1 °C 10.3 °C 1007.0 hPa ENE 16.7 km/h 16.7 km/h 89 % 0.0 mm
14:42 12.1 °C 10.3 °C 1007.0 hPa ESE 11.1 km/h 11.1 km/h 89 % 0.0 mm
14:47 12.1 °C 10.3 °C 1007.0 hPa NNE 11.1 km/h 11.1 km/h 89 % 0.0 mm
14:52 12.2 °C 10.4 °C 1008.0 hPa ENE 9.3 km/h 9.3 km/h 89 % 0.0 mm
14:57 12.2 °C 10.4 °C 1008.0 hPa NE 7.4 km/h 7.4 km/h 89 % 0.0 mm
15:02 12.1 °C 10.3 °C 1008.0 hPa NNE 9.5 km/h 9.5 km/h 89 % 0.0 mm
15:07 12.1 °C 10.3 °C 1008.0 hPa NNE 9.3 km/h 9.3 km/h 89 % 0.0 mm
15:12 12.1 °C 10.3 °C 1008.0 hPa East 9.3 km/h 9.3 km/h 89 % 0.0 mm
15:17 12.1 °C 10.3 °C 1008.0 hPa NE 5.6 km/h 5.6 km/h 89 % 0.0 mm
15:22 12.2 °C 10.4 °C 1008.0 hPa SE 5.6 km/h 5.6 km/h 89 % 0.0 mm
15:27 12.3 °C 10.6 °C 1008.0 hPa East 6.1 km/h 6.1 km/h 89 % 0.0 mm
15:32 12.4 °C 10.6 °C 1008.0 hPa ESE 6.1 km/h 6.1 km/h 89 % 0.0 mm
15:37 12.5 °C 10.7 °C 1008.0 hPa NE 7.4 km/h 7.4 km/h 89 % 0.0 mm
15:42 12.5 °C 10.7 °C 1008.0 hPa ESE 7.4 km/h 7.4 km/h 89 % 0.0 mm
15:47 12.6 °C 10.8 °C 1008.0 hPa East 5.3 km/h 5.3 km/h 89 % 0.0 mm
15:52 12.7 °C 10.9 °C 1008.0 hPa ESE 9.3 km/h 9.3 km/h 89 % 0.0 mm
15:57 12.8 °C 11.1 °C 1008.0 hPa ESE 8.7 km/h 8.7 km/h 89 % 0.0 mm
16:02 13.0 °C 11.2 °C 1008.0 hPa ENE 7.4 km/h 7.4 km/h 89 % 0.0 mm
16:07 13.1 °C 11.2 °C 1008.0 hPa ESE 9.3 km/h 9.3 km/h 88 % 0.0 mm
16:12 13.2 °C 11.3 °C 1008.0 hPa ESE 7.4 km/h 7.4 km/h 88 % 0.0 mm
16:22 13.2 °C 11.1 °C 1008.0 hPa ESE 3.9 km/h 3.9 km/h 87 % 0.0 mm
16:32 13.2 °C 11.1 °C 1008.0 hPa ENE 4.2 km/h 4.2 km/h 87 % 0.0 mm
16:37 13.2 °C 11.1 °C 1008.0 hPa East 5.6 km/h 5.6 km/h 87 % 0.0 mm
16:42 13.3 °C 11.0 °C 1008.0 hPa ESE 7.4 km/h 7.4 km/h 86 % 0.0 mm
16:47 13.3 °C 11.0 °C 1008.0 hPa ESE 9.3 km/h 9.3 km/h 86 % 0.0 mm
16:52 13.3 °C 11.0 °C 1009.0 hPa East 9.3 km/h 9.3 km/h 86 % 0.0 mm
16:57 13.2 °C 10.9 °C 1009.0 hPa ENE 9.3 km/h 9.3 km/h 86 % 0.0 mm
17:02 13.1 °C 10.8 °C 1009.0 hPa ENE 11.1 km/h 11.1 km/h 86 % 0.0 mm
17:07 13.1 °C 10.6 °C 1009.0 hPa East 7.6 km/h 7.6 km/h 85 % 0.0 mm
17:12 13.1 °C 10.8 °C 1009.0 hPa ESE 9.0 km/h 9.0 km/h 86 % 0.0 mm
17:17 13.0 °C 10.7 °C 1009.0 hPa ESE 9.3 km/h 9.3 km/h 86 % 0.0 mm
17:27 13.0 °C 10.7 °C 1009.0 hPa WNW 5.6 km/h 5.6 km/h 86 % 0.0 mm
17:32 13.0 °C 10.7 °C 1009.0 hPa ENE 5.6 km/h 5.6 km/h 86 % 0.0 mm
17:37 13.0 °C 10.6 °C 1010.0 hPa ESE 7.4 km/h 7.4 km/h 85 % 0.0 mm
17:42 13.0 °C 10.6 °C 1010.0 hPa SSW 7.4 km/h 7.4 km/h 85 % 0.0 mm
17:47 13.1 °C 10.8 °C 1010.0 hPa SSE 3.7 km/h 3.7 km/h 86 % 0.0 mm
17:52 13.0 °C 10.7 °C 1010.0 hPa South 3.7 km/h   86 % 0.0 mm
17:57 13.0 °C 10.9 °C 1010.0 hPa Calm     87 % 0.0 mm
18:02 12.8 °C 10.7 °C 1010.0 hPa ENE 3.7 km/h 3.7 km/h 87 % 0.0 mm
18:07 12.8 °C 10.7 °C 1010.0 hPa ENE 1.9 km/h   87 % 0.0 mm
18:17 12.7 °C 10.8 °C 1010.0 hPa NW 3.7 km/h   88 % 0.0 mm
18:22 12.6 °C 10.7 °C 1010.0 hPa Calm     88 % 0.0 mm
18:27 12.6 °C 10.7 °C 1010.0 hPa NE 3.2 km/h 3.2 km/h 88 % 0.0 mm
18:32 12.6 °C 10.7 °C 1010.0 hPa ENE 3.9 km/h   88 % 0.0 mm
18:37 12.7 °C 10.9 °C 1010.0 hPa ENE 1.9 km/h 2.6 km/h 89 % 0.0 mm
18:42 12.7 °C 10.9 °C 1010.0 hPa ENE 3.7 km/h 3.7 km/h 89 % 0.0 mm
18:47 12.7 °C 10.9 °C 1010.0 hPa NNE 6.1 km/h 6.1 km/h 89 % 0.0 mm
18:52 12.7 °C 10.9 °C 1010.0 hPa ESE 5.6 km/h 5.6 km/h 89 % 0.0 mm
18:57 12.7 °C 10.9 °C 1010.0 hPa NNE 7.4 km/h 7.4 km/h 89 % 0.0 mm
19:02 12.7 °C 10.9 °C 1010.0 hPa NNW 7.4 km/h 7.4 km/h 89 % 0.0 mm
19:07 12.6 °C 10.8 °C 1010.0 hPa NNE 7.4 km/h 7.4 km/h 89 % 0.0 mm
19:12 12.7 °C 10.9 °C 1010.0 hPa NE 9.3 km/h 9.3 km/h 89 % 0.0 mm
19:17 12.7 °C 10.9 °C 1010.0 hPa NNE 5.6 km/h 5.6 km/h 89 % 0.0 mm
19:22 12.7 °C 10.8 °C 1010.0 hPa NE 5.0 km/h 5.0 km/h 88 % 0.0 mm
19:27 12.7 °C 10.8 °C 1010.0 hPa NE 5.6 km/h 5.6 km/h 88 % 0.0 mm
19:30 11.7 °C 9.8 °C 1012.8 hPa WSW 1.6 km/h 3.2 km/h 88 % 0.0 mm
19:32 12.7 °C 10.8 °C 1010.0 hPa NE 7.4 km/h 7.4 km/h 88 % 0.0 mm
19:37 12.7 °C 10.8 °C 1010.0 hPa NNE 5.6 km/h 5.6 km/h 88 % 0.0 mm
19:40 11.6 °C 9.7 °C 1012.8 hPa Calm   3.2 km/h 88 % 0.0 mm
19:42 12.7 °C 10.8 °C 1010.0 hPa NNW 7.4 km/h 7.4 km/h 88 % 0.0 mm
19:47 12.7 °C 10.8 °C 1010.0 hPa NNE 3.7 km/h 3.7 km/h 88 % 0.0 mm
19:50 11.6 °C 9.7 °C 1012.8 hPa WSW 1.6 km/h 1.6 km/h 88 % 0.0 mm
19:52 12.6 °C 10.7 °C 1010.7 hPa North 5.6 km/h 5.6 km/h 88 % 0.0 mm
19:57 12.6 °C 10.7 °C 1010.7 hPa NE 3.9 km/h 3.9 km/h 88 % 0.0 mm
20:00 11.5 °C 9.6 °C 1011.7 hPa Calm   3.2 km/h 88 % 0.0 mm
20:02 12.6 °C 10.7 °C 1010.7 hPa ENE 1.9 km/h 2.3 km/h 88 % 0.0 mm
20:07 12.5 °C 10.6 °C 1010.7 hPa NNE 3.7 km/h 3.7 km/h 88 % 0.0 mm
20:10 11.5 °C 9.6 °C 1011.7 hPa Calm     88 % 0.0 mm
20:12 12.5 °C 10.6 °C 1010.7 hPa NNE 1.9 km/h   88 % 0.0 mm
20:17 12.5 °C 10.6 °C 1010.7 hPa NNE 1.9 km/h 1.9 km/h 88 % 0.0 mm
20:20 11.5 °C 9.6 °C 1011.7 hPa Calm     88 % 0.0 mm
20:22 12.5 °C 10.6 °C 1010.7 hPa ENE 1.9 km/h   88 % 0.0 mm
20:27 12.5 °C 10.6 °C 1010.7 hPa NW 3.9 km/h   88 % 34.0 mm
20:30 11.5 °C 9.6 °C 1011.7 hPa Calm     88 % 0.0 mm
20:37 12.5 °C 10.4 °C 1010.7 hPa NW 3.7 km/h   87 % 34.0 mm
20:40 11.4 °C 9.5 °C 1011.7 hPa WSW 1.6 km/h 3.2 km/h 88 % 0.0 mm
20:47 12.5 °C 10.4 °C 1010.7 hPa ENE 2.6 km/h 2.6 km/h 87 % 34.0 mm
20:50 11.4 °C 9.5 °C 1011.7 hPa SW 1.6 km/h 3.2 km/h 88 % 0.0 mm
20:52 12.6 °C 10.5 °C 1011.7 hPa ENE 4.2 km/h   87 % 34.0 mm
20:57 12.6 °C 10.5 °C 1011.7 hPa ENE 5.6 km/h 5.6 km/h 87 % 34.0 mm
21:00 11.4 °C 9.7 °C 1011.7 hPa SW 1.6 km/h 3.2 km/h 89 % 0.0 mm
21:02 12.6 °C 10.3 °C 1011.7 hPa NNE 2.3 km/h 2.3 km/h 86 % 34.0 mm
21:07 12.6 °C 10.3 °C 1011.7 hPa NNE 3.7 km/h 3.7 km/h 86 % 34.0 mm
21:10 11.4 °C 9.7 °C 1011.7 hPa SSW 1.6 km/h 3.2 km/h 89 % 0.0 mm
21:12 12.6 °C 10.3 °C 1011.7 hPa Calm     86 % 34.0 mm
21:17 12.6 °C 10.3 °C 1011.7 hPa West 1.9 km/h 1.9 km/h 86 % 34.0 mm
21:20 11.3 °C 9.6 °C 1011.7 hPa SW 1.6 km/h 3.2 km/h 89 % 0.0 mm
21:22 12.6 °C 10.3 °C 1011.7 hPa WNW 3.7 km/h 3.7 km/h 86 % 34.0 mm
21:27 12.5 °C 10.2 °C 1011.7 hPa WSW 2.6 km/h   86 % 0.0 mm
21:30 11.4 °C 9.7 °C 1012.8 hPa Calm   1.6 km/h 89 % 0.0 mm
21:32 12.5 °C 10.2 °C 1011.7 hPa WSW 1.9 km/h 1.9 km/h 86 % 0.0 mm
21:37 12.5 °C 10.2 °C 1011.7 hPa West 3.7 km/h   86 % 0.0 mm
21:40 11.4 °C 9.8 °C 1012.8 hPa Calm     90 % 0.0 mm
21:42 12.5 °C 10.2 °C 1011.7 hPa SW 1.9 km/h   86 % 0.0 mm
21:47 12.5 °C 10.2 °C 1011.7 hPa SW 1.9 km/h 1.9 km/h 86 % 0.0 mm
21:50 11.4 °C 9.8 °C 1012.8 hPa Calm     90 % 0.0 mm
21:52 12.4 °C 10.1 °C 1011.7 hPa West 1.9 km/h 1.9 km/h 86 % 0.0 mm
21:57 12.4 °C 10.3 °C 1011.7 hPa WNW 3.7 km/h   87 % 0.0 mm
22:00 11.3 °C 9.6 °C 1011.7 hPa Calm     89 % 0.0 mm
22:02 12.4 °C 10.3 °C 1011.7 hPa SW 3.7 km/h 3.7 km/h 87 % 0.0 mm
22:07 12.4 °C 10.3 °C 1011.7 hPa West 3.7 km/h 3.7 km/h 87 % 0.0 mm
22:10 11.2 °C 9.4 °C 1012.8 hPa Calm     89 % 0.0 mm
22:12 12.4 °C 10.1 °C 1011.7 hPa SW 3.7 km/h 3.7 km/h 86 % 0.0 mm
22:17 12.5 °C 10.2 °C 1011.7 hPa SW 5.6 km/h 5.6 km/h 86 % 0.0 mm
22:20 11.2 °C 9.4 °C 1012.8 hPa Calm     89 % 0.0 mm
22:22 12.4 °C 10.1 °C 1011.7 hPa SW 5.6 km/h 5.6 km/h 86 % 0.0 mm
22:27 12.3 °C 10.2 °C 1011.7 hPa WSW 4.7 km/h 4.7 km/h 87 % 0.0 mm
22:30 11.2 °C 9.4 °C 1012.8 hPa West 1.6 km/h 3.2 km/h 89 % 0.0 mm
22:32 12.3 °C 10.2 °C 1011.7 hPa SSW 5.6 km/h 5.6 km/h 87 % 0.0 mm
22:37 12.2 °C 10.3 °C 1011.7 hPa SW 3.7 km/h 3.7 km/h 88 % 0.0 mm
22:40 11.1 °C 9.3 °C 1012.8 hPa NNW 1.6 km/h 1.6 km/h 89 % 0.0 mm
22:42 12.2 °C 10.3 °C 1011.7 hPa WSW 5.6 km/h 5.6 km/h 88 % 0.0 mm
22:47 12.2 °C 10.4 °C 1011.7 hPa SW 5.6 km/h 5.6 km/h 89 % 0.0 mm
22:50 11.0 °C 9.3 °C 1012.8 hPa North 1.6 km/h 3.2 km/h 89 % 0.0 mm
22:52 12.2 °C 10.4 °C 1011.7 hPa SW 5.6 km/h 5.6 km/h 89 % 0.0 mm
22:57 12.2 °C 10.4 °C 1011.7 hPa NNW 5.6 km/h 5.6 km/h 89 % 0.0 mm
23:00 11.0 °C 9.3 °C 1011.7 hPa WNW 1.6 km/h 3.2 km/h 89 % 0.0 mm
23:04 12.2 °C 10.4 °C 1010.7 hPa SW 5.6 km/h 5.6 km/h 89 % 0.0 mm
23:09 12.2 °C 10.4 °C 1010.7 hPa WSW 5.8 km/h 5.8 km/h 89 % 0.0 mm
23:10 10.7 °C 8.9 °C 1012.8 hPa WSW 3.2 km/h 3.2 km/h 89 % 0.0 mm
23:14 12.2 °C 10.4 °C 1010.7 hPa WSW 1.9 km/h 1.9 km/h 89 % 0.0 mm
23:19 12.1 °C 10.3 °C 1011.7 hPa WSW 3.7 km/h 3.7 km/h 89 % 0.0 mm
23:20 10.8 °C 9.1 °C 1012.8 hPa WSW 1.6 km/h 3.2 km/h 89 % 0.0 mm
23:24 12.1 °C 10.3 °C 1011.7 hPa WSW 3.9 km/h 3.9 km/h 89 % 0.0 mm
23:29 12.1 °C 10.3 °C 1011.7 hPa WSW 4.2 km/h 4.2 km/h 89 % 0.0 mm
23:30 10.8 °C 9.1 °C 1011.7 hPa Calm   1.6 km/h 89 % 0.0 mm
23:34 12.0 °C 10.2 °C 1011.7 hPa SW 3.9 km/h 4.2 km/h 89 % 0.0 mm
23:39 12.0 °C 10.2 °C 1011.7 hPa WSW 3.9 km/h 3.9 km/h 89 % 0.0 mm
23:40 10.7 °C 8.9 °C 1011.7 hPa Calm   3.2 km/h 89 % 0.0 mm
23:44 12.0 °C 10.2 °C 1011.7 hPa WSW 3.7 km/h 3.7 km/h 89 % 0.0 mm
23:49 12.0 °C 10.2 °C 1011.7 hPa WSW 3.7 km/h 3.7 km/h 89 % 0.0 mm
23:50 10.6 °C 8.9 °C 1011.7 hPa West 1.6 km/h   89 % 0.0 mm
23:54 12.0 °C 10.2 °C 1011.7 hPa WSW 4.2 km/h 4.2 km/h 89 % 0.0 mm
23:59 12.0 °C 10.1 °C 1011.7 hPa WSW 5.6 km/h 5.6 km/h 88 % 0.0 mm
Meteo Sesrovires
Elogis d' Weather Underground - 3.5 mb

Guio original per  Jim McMurry - jmcmurry@mwt.net Adaptat per a la plantilla per  Wim van der Kuil - Leuven-Template.eu

Trobareu la nostra informacio del temps tambe a:

Weather Underground

AWEKAS